Time;durP1;ratioP1;P1;durP2;ratioP2;P2;SDS_P1;SDS_P2;PMS_P1;PMS_P2;Temp;Humidity;BMP_temperature;BMP_pressure;BME280_temperature;BME280_humidity;BME280_pressure;Samples;Min_cycle;Max_cycle;Signal;HPM_P1;HPM_P2
2021/03/12 00:02:07;;;;;;;1.10;0.63;;;18.00;64.90;;;;;;5011286;28;20419;-45
2021/03/12 00:04:33;;;;;;;0.73;0.73;;;18.00;64.90;;;;;;5009169;28;20038;-47
2021/03/12 00:06:58;;;;;;;0.93;0.60;;;18.00;64.90;;;;;;5011316;28;20400;-50
2021/03/12 00:09:24;;;;;;;2.15;0.77;;;18.00;64.90;;;;;;5011462;28;20038;-49
2021/03/12 00:11:49;;;;;;;1.02;0.77;;;18.00;65.10;;;;;;5012625;28;20075;-49
2021/03/12 00:14:15;;;;;;;0.80;0.80;;;18.00;65.00;;;;;;5011615;28;20045;-48
2021/03/12 00:16:40;;;;;;;0.68;0.55;;;18.00;65.00;;;;;;5011804;28;20026;-49
2021/03/12 00:19:06;;;;;;;1.17;0.77;;;18.00;64.80;;;;;;5009823;28;20057;-48
2021/03/12 00:21:32;;;;;;;0.90;0.80;;;18.00;64.50;;;;;;5009453;28;20041;-47
2021/03/12 00:23:57;;;;;;;0.88;0.80;;;18.00;65.40;;;;;;5011515;28;20065;-47
2021/03/12 00:26:23;;;;;;;1.10;0.70;;;18.00;64.80;;;;;;5011600;28;20026;-48
2021/03/12 00:28:48;;;;;;;1.30;0.70;;;18.00;64.60;;;;;;5009287;28;20030;-48
2021/03/12 00:31:14;;;;;;;1.10;0.73;;;18.00;64.70;;;;;;5011310;28;20052;-45
2021/03/12 00:33:40;;;;;;;0.98;0.70;;;17.90;64.70;;;;;;5010855;28;20033;-50
2021/03/12 00:36:06;;;;;;;0.70;0.70;;;17.90;64.70;;;;;;4993907;28;20500;-45
2021/03/12 00:38:31;;;;;;;0.82;0.70;;;17.90;65.00;;;;;;5011446;28;20026;-48
2021/03/12 00:40:59;;;;;;;0.90;0.80;;;17.90;64.90;;;;;;5008309;28;20044;-50
2021/03/12 00:43:25;;;;;;;1.73;0.40;;;17.90;64.90;;;;;;5009691;28;20026;-45
2021/03/12 00:45:53;;;;;;;0.80;0.80;;;17.90;64.90;;;;;;5009151;28;20381;-46
2021/03/12 00:48:19;;;;;;;0.90;0.60;;;17.90;64.90;;;;;;4994488;28;20404;-47
2021/03/12 00:50:44;;;;;;;0.75;0.65;;;17.80;64.80;;;;;;5012956;28;20025;-48
2021/03/12 00:53:10;;;;;;;0.93;0.93;;;17.90;64.80;;;;;;5009301;28;20022;-47
2021/03/12 00:55:36;;;;;;;0.77;0.68;;;17.90;64.90;;;;;;5008511;28;20030;-46
2021/03/12 00:58:02;;;;;;;1.10;0.77;;;17.80;64.80;;;;;;4991353;28;20097;-51
2021/03/12 01:00:28;;;;;;;0.93;0.80;;;17.90;64.80;;;;;;5009974;28;20516;-49
2021/03/12 01:02:54;;;;;;;0.60;0.50;;;17.90;64.70;;;;;;5012057;28;20026;-50
2021/03/12 01:05:20;;;;;;;0.70;0.70;;;17.90;64.60;;;;;;5009467;28;20114;-48
2021/03/12 01:07:46;;;;;;;1.00;0.68;;;17.90;64.80;;;;;;5009961;28;20381;-48
2021/03/12 01:10:14;;;;;;;1.48;0.77;;;17.90;64.90;;;;;;5008955;28;20149;-51
2021/03/12 01:12:39;;;;;;;0.80;0.73;;;17.90;64.70;;;;;;5009159;28;20497;-47
2021/03/12 01:15:07;;;;;;;0.60;0.45;;;17.80;64.70;;;;;;5010989;28;20030;-47
2021/03/12 01:17:32;;;;;;;1.23;0.70;;;17.80;64.80;;;;;;5011931;28;20412;-48
2021/03/12 01:19:58;;;;;;;0.95;0.70;;;17.80;64.90;;;;;;5010719;28;20041;-50
2021/03/12 01:22:24;;;;;;;0.80;0.50;;;17.80;65.00;;;;;;5008915;28;20030;-50
2021/03/12 01:24:49;;;;;;;1.30;0.80;;;17.80;64.90;;;;;;5008672;28;20026;-49
2021/03/12 01:27:15;;;;;;;1.52;0.98;;;17.80;65.00;;;;;;5009886;28;20018;-45
2021/03/12 01:29:40;;;;;;;1.38;0.73;;;17.80;65.10;;;;;;5011544;28;20454;-49
2021/03/12 01:32:06;;;;;;;0.93;0.80;;;17.80;65.00;;;;;;5010193;28;20026;-50
2021/03/12 01:34:32;;;;;;;1.48;0.60;;;17.80;65.00;;;;;;5008212;28;20033;-47
2021/03/12 01:36:58;;;;;;;0.70;0.70;;;17.80;64.90;;;;;;5008154;28;20073;-51
2021/03/12 01:39:24;;;;;;;0.88;0.70;;;17.80;65.00;;;;;;5009721;28;20100;-49
2021/03/12 01:41:50;;;;;;;1.00;0.70;;;17.80;65.00;;;;;;5012421;28;20631;-48
2021/03/12 01:44:15;;;;;;;1.20;0.73;;;17.80;65.00;;;;;;5008853;28;20033;-47
2021/03/12 01:46:41;;;;;;;1.17;0.73;;;17.80;65.00;;;;;;4993431;28;20030;-49
2021/03/12 01:49:07;;;;;;;1.00;0.70;;;17.80;65.00;;;;;;5009236;28;20462;-48
2021/03/12 01:51:33;;;;;;;2.00;0.77;;;17.80;65.00;;;;;;5009967;28;20026;-49
2021/03/12 01:53:59;;;;;;;0.65;0.55;;;17.70;65.10;;;;;;5010503;28;20038;-50
2021/03/12 01:56:25;;;;;;;0.68;0.50;;;17.70;65.20;;;;;;5011225;28;20477;-46
2021/03/12 01:58:50;;;;;;;0.77;0.70;;;17.70;65.20;;;;;;5008075;28;20034;-51
2021/03/12 02:01:16;;;;;;;1.30;0.80;;;17.70;65.10;;;;;;4976957;28;20069;-48
2021/03/12 02:03:41;;;;;;;1.00;0.63;;;17.70;65.20;;;;;;5008486;28;20037;-51
2021/03/12 02:06:07;;;;;;;1.20;0.98;;;17.70;65.20;;;;;;4991494;28;20026;-45
2021/03/12 02:08:33;;;;;;;0.70;0.70;;;17.70;65.00;;;;;;5012287;28;20030;-48
2021/03/12 02:10:58;;;;;;;1.48;0.60;;;17.70;65.00;;;;;;5008926;28;20018;-47
2021/03/12 02:13:35;;;;;;;0.90;0.80;;;17.70;65.10;;;;;;5007745;28;20536;-49
2021/03/12 02:16:26;;;;;;;0.82;0.57;;;17.70;65.30;;;;;;4992699;28;20108;-48
2021/03/12 02:19:08;;;;;;;1.13;0.80;;;17.70;65.20;;;;;;5008577;28;20026;-47
2021/03/12 02:21:37;;;;;;;1.08;0.60;;;17.60;65.20;;;;;;5005727;28;20038;-46
2021/03/12 02:24:18;;;;;;;0.60;0.45;;;17.60;65.30;;;;;;4992655;28;20551;-49
2021/03/12 02:26:44;;;;;;;0.90;0.80;;;17.60;65.30;;;;;;5007402;28;20121;-46
2021/03/12 02:29:20;;;;;;;0.82;0.50;;;17.60;65.30;;;;;;5006723;28;20117;-47
2021/03/12 02:31:46;;;;;;;1.05;0.60;;;17.60;65.30;;;;;;4992180;28;20021;-49
2021/03/12 02:34:12;;;;;;;0.88;0.70;;;17.60;65.30;;;;;;4990882;28;20578;-49
2021/03/12 02:36:39;;;;;;;0.68;0.68;;;17.60;65.40;;;;;;5007717;28;20432;-46
2021/03/12 02:39:06;;;;;;;0.95;0.65;;;17.60;65.30;;;;;;4991459;28;20048;-47
2021/03/12 02:41:32;;;;;;;1.33;0.80;;;17.50;65.30;;;;;;4992086;28;20132;-49
2021/03/12 02:43:57;;;;;;;0.60;0.60;;;17.50;65.40;;;;;;4976594;28;20552;-49
2021/03/12 02:46:23;;;;;;;0.77;0.50;;;17.50;65.30;;;;;;4976883;28;20034;-52
2021/03/12 02:48:49;;;;;;;0.70;0.60;;;17.50;65.50;;;;;;4977181;28;20030;-52
2021/03/12 02:51:14;;;;;;;0.70;0.60;;;17.50;65.50;;;;;;4976547;28;20033;-47
2021/03/12 02:53:40;;;;;;;0.85;0.60;;;17.50;65.50;;;;;;4977802;28;20069;-48
2021/03/12 02:56:06;;;;;;;0.85;0.73;;;17.50;65.50;;;;;;4992409;28;20033;-47
2021/03/12 02:58:32;;;;;;;0.98;0.70;;;17.50;65.50;;;;;;4976593;28;20050;-48
2021/03/12 03:01:03;;;;;;;1.38;0.65;;;17.50;65.50;;;;;;4990130;28;20034;-51
2021/03/12 03:03:29;;;;;;;0.80;0.60;;;17.50;65.50;;;;;;4992788;28;20018;-49
2021/03/12 03:05:54;;;;;;;0.93;0.80;;;17.50;65.50;;;;;;4992921;28;20502;-49
2021/03/12 03:08:20;;;;;;;1.48;0.70;;;17.50;65.50;;;;;;4977127;28;20688;-47
2021/03/12 03:10:45;;;;;;;0.77;0.50;;;17.40;65.40;;;;;;4976292;28;20065;-51
2021/03/12 03:13:11;;;;;;;0.77;0.70;;;17.40;65.60;;;;;;4992730;28;20026;-49
2021/03/12 03:15:37;;;;;;;0.70;0.70;;;17.40;65.50;;;;;;5007882;28;20109;-47
2021/03/12 03:18:02;;;;;;;0.93;0.60;;;17.50;65.60;;;;;;4978910;28;20030;-47
2021/03/12 03:20:28;;;;;;;0.60;0.52;;;17.40;65.50;;;;;;4995058;28;20046;-47
2021/03/12 03:22:54;;;;;;;2.22;0.60;;;17.50;65.50;;;;;;4995762;28;20034;-50
2021/03/12 03:25:19;;;;;;;0.82;0.70;;;17.40;65.40;;;;;;4980162;28;20115;-46
2021/03/12 03:27:45;;;;;;;0.65;0.60;;;17.40;65.40;;;;;;4996256;28;20026;-51
2021/03/12 03:30:12;;;;;;;1.50;0.77;;;17.50;65.50;;;;;;5012664;28;20084;-46
2021/03/12 03:32:37;;;;;;;0.57;0.45;;;17.40;65.40;;;;;;5014349;28;20052;-47
2021/03/12 03:35:08;;;;;;;0.65;0.63;;;17.40;65.30;;;;;;5012358;28;20092;-45
2021/03/12 03:37:33;;;;;;;1.08;0.98;;;17.40;65.30;;;;;;5010517;28;20022;-47
2021/03/12 03:39:59;;;;;;;1.52;0.80;;;17.40;65.40;;;;;;5012079;28;20518;-47
2021/03/12 03:42:28;;;;;;;1.13;0.70;;;17.40;65.40;;;;;;4995381;28;20034;-47
2021/03/12 03:44:55;;;;;;;0.85;0.70;;;17.40;65.40;;;;;;4996549;28;20028;-50
2021/03/12 03:47:21;;;;;;;1.10;0.73;;;17.40;65.40;;;;;;4980294;28;20025;-50
2021/03/12 03:49:47;;;;;;;1.00;0.70;;;17.40;65.40;;;;;;4978631;28;20056;-48
2021/03/12 03:52:12;;;;;;;1.00;0.60;;;17.40;65.40;;;;;;4979408;28;20796;-46
2021/03/12 03:54:38;;;;;;;1.60;0.70;;;17.40;65.40;;;;;;4978568;28;20089;-47
2021/03/12 03:57:05;;;;;;;0.50;0.50;;;17.40;65.40;;;;;;4979327;28;20033;-46
2021/03/12 03:59:31;;;;;;;1.10;0.70;;;17.40;65.30;;;;;;4994454;28;20049;-45
2021/03/12 04:01:56;;;;;;;0.75;0.60;;;17.40;65.30;;;;;;4978899;28;20033;-49
2021/03/12 04:04:22;;;;;;;1.38;0.70;;;17.40;65.30;;;;;;4979077;28;20030;-49
2021/03/12 04:06:47;;;;;;;0.70;0.40;;;17.40;65.40;;;;;;4995338;28;20054;-48
2021/03/12 04:09:14;;;;;;;1.05;0.60;;;17.40;65.30;;;;;;4993843;28;20030;-49
2021/03/12 04:11:39;;;;;;;0.73;0.68;;;17.40;65.30;;;;;;4995674;28;20025;-47
2021/03/12 04:14:05;;;;;;;0.77;0.77;;;17.40;65.30;;;;;;5011532;28;20120;-49
2021/03/12 04:16:30;;;;;;;0.90;0.60;;;17.40;65.20;;;;;;5010459;28;20108;-48
2021/03/12 04:18:57;;;;;;;0.88;0.60;;;17.40;65.20;;;;;;4994781;28;20044;-49
2021/03/12 04:21:23;;;;;;;0.85;0.73;;;17.40;65.20;;;;;;4994690;28;20080;-45
2021/03/12 04:23:49;;;;;;;0.88;0.70;;;17.40;65.20;;;;;;4996797;28;20473;-47
2021/03/12 04:26:14;;;;;;;0.50;0.35;;;17.40;65.30;;;;;;4994956;28;20550;-48
2021/03/12 04:28:40;;;;;;;0.95;0.63;;;17.40;65.20;;;;;;4994274;28;20101;-50
2021/03/12 04:31:05;;;;;;;0.68;0.60;;;17.40;65.30;;;;;;5011558;28;20184;-48
2021/03/12 04:33:31;;;;;;;1.40;0.73;;;17.40;65.30;;;;;;4995108;28;20025;-48
2021/03/12 04:35:57;;;;;;;0.55;0.47;;;17.40;65.10;;;;;;5012448;28;20048;-45
2021/03/12 04:38:22;;;;;;;0.57;0.57;;;17.40;65.20;;;;;;4995239;28;20108;-48
2021/03/12 04:40:48;;;;;;;1.85;0.65;;;17.40;65.10;;;;;;4977664;28;20113;-48
2021/03/12 04:43:14;;;;;;;1.33;0.60;;;17.40;65.20;;;;;;4994655;28;20559;-46
2021/03/12 04:45:39;;;;;;;1.10;0.57;;;17.30;65.20;;;;;;4995858;28;20034;-46
2021/03/12 04:48:06;;;;;;;1.10;0.70;;;17.40;65.20;;;;;;4994488;28;20440;-46
2021/03/12 04:50:31;;;;;;;1.15;0.60;;;17.30;65.10;;;;;;4993601;28;20065;-46
2021/03/12 04:52:57;;;;;;;0.88;0.57;;;17.30;65.10;;;;;;5008905;28;20057;-49
2021/03/12 04:55:26;;;;;;;0.65;0.57;;;17.30;65.10;;;;;;4994206;28;20022;-46
2021/03/12 04:57:52;;;;;;;0.82;0.52;;;17.30;65.10;;;;;;5010177;28;20026;-51
2021/03/12 05:00:18;;;;;;;1.00;0.50;;;17.30;65.10;;;;;;5011065;28;20167;-45
2021/03/12 05:02:44;;;;;;;1.42;0.80;;;17.30;65.10;;;;;;5012685;28;20029;-52
2021/03/12 05:05:10;;;;;;;0.52;0.50;;;17.30;65.10;;;;;;4978197;28;20041;-48
2021/03/12 05:07:36;;;;;;;0.75;0.60;;;17.30;65.00;;;;;;5009732;28;20033;-46
2021/03/12 05:10:04;;;;;;;0.43;0.43;;;17.30;65.10;;;;;;5009360;28;20030;-48
2021/03/12 05:12:33;;;;;;;0.63;0.55;;;17.30;65.00;;;;;;5008928;28;20493;-48
2021/03/12 05:14:58;;;;;;;0.73;0.50;;;17.30;65.00;;;;;;5011284;28;20044;-50
2021/03/12 05:17:24;;;;;;;1.77;0.47;;;17.40;65.30;;;;;;5011562;28;20022;-49
2021/03/12 05:19:50;;;;;;;1.17;0.60;;;17.50;65.60;;;;;;5009417;28;20042;-49
2021/03/12 05:22:16;;;;;;;1.17;0.35;;;17.50;65.40;;;;;;5007613;28;20569;-46
2021/03/12 05:24:41;;;;;;;3.70;1.17;;;17.50;65.50;;;;;;5010055;28;20779;-49
2021/03/12 05:27:07;;;;;;;0.60;0.60;;;17.50;65.30;;;;;;5004280;28;20033;-45
2021/03/12 05:40:29;;;;;;;0.77;0.60;;;17.50;64.80;;;;;;5095491;27;20450;-43
2021/03/12 05:42:55;;;;;;;2.60;0.80;;;17.60;64.70;;;;;;5096616;28;20416;-43
2021/03/12 05:45:21;;;;;;;1.05;0.70;;;17.70;64.30;;;;;;5093753;28;20036;-43
2021/03/12 05:47:47;;;;;;;1.85;0.88;;;17.70;65.10;;;;;;5095668;28;20039;-43
2021/03/12 05:50:13;;;;;;;1.83;0.65;;;17.70;65.80;;;;;;5095402;28;20088;-43
2021/03/12 05:52:39;;;;;;;3.30;1.10;;;17.70;66.10;;;;;;5094880;28;20032;-42
2021/03/12 05:55:05;;;;;;;1.65;0.70;;;17.80;66.90;;;;;;5096017;28;20402;-43
2021/03/12 05:57:30;;;;;;;0.73;0.70;;;17.70;67.10;;;;;;5096934;28;20027;-45
2021/03/12 05:59:59;;;;;;;1.50;0.73;;;17.80;67.20;;;;;;5095266;28;20043;-46
2021/03/12 06:02:27;;;;;;;2.50;0.93;;;17.70;65.90;;;;;;5094245;28;20034;-43
2021/03/12 06:04:53;;;;;;;3.15;0.90;;;17.70;66.90;;;;;;5090942;28;20451;-42
2021/03/12 06:07:19;;;;;;;1.40;0.70;;;17.70;66.90;;;;;;5090791;28;20028;-44
2021/03/12 06:09:44;;;;;;;2.88;0.90;;;17.70;66.40;;;;;;5089752;28;20046;-46
2021/03/12 06:12:10;;;;;;;2.08;0.80;;;17.70;66.20;;;;;;5086800;28;20027;-48
2021/03/12 06:14:49;;;;;;;1.88;0.90;;;17.60;68.00;;;;;;5087409;28;20040;-44
2021/03/12 06:17:39;;;;;;;2.47;0.93;;;17.60;67.60;;;;;;5087354;28;20039;-47
2021/03/12 06:20:10;;;;;;;1.90;1.10;;;17.60;69.10;;;;;;5092861;28;20051;-48
2021/03/12 06:22:36;;;;;;;1.80;0.70;;;17.60;68.10;;;;;;5094777;28;20107;-49
2021/03/12 06:25:18;;;;;;;3.03;0.80;;;17.60;67.50;;;;;;5096881;28;20032;-46
2021/03/12 06:27:44;;;;;;;1.52;0.85;;;17.60;66.20;;;;;;5104746;28;20028;-47
2021/03/12 06:30:10;;;;;;;1.58;0.50;;;17.60;66.60;;;;;;5104510;28;20043;-44
2021/03/12 06:32:44;;;;;;;1.88;1.10;;;17.60;66.80;;;;;;5101799;28;20028;-44
2021/03/12 06:35:11;;;;;;;2.00;0.88;;;17.60;66.80;;;;;;5103262;28;20573;-42
2021/03/12 06:37:37;;;;;;;1.40;0.73;;;17.60;66.90;;;;;;5099884;28;20030;-44
2021/03/12 06:40:25;;;;;;;1.30;0.60;;;17.60;67.10;;;;;;5097639;28;20119;-45
2021/03/12 06:43:11;;;;;;;2.03;0.82;;;17.60;66.80;;;;;;5078926;28;20024;-46
2021/03/12 06:45:49;;;;;;;3.65;0.80;;;17.60;66.60;;;;;;5088784;28;20036;-48
2021/03/12 06:48:30;;;;;;;0.98;0.77;;;17.60;66.50;;;;;;5079694;28;20029;-39
2021/03/12 06:51:02;;;;;;;2.53;0.90;;;17.60;67.30;;;;;;5090565;28;20040;-41
2021/03/12 06:53:36;;;;;;;6.00;1.25;;;17.60;69.30;;;;;;5087256;28;20016;-41
2021/03/12 06:56:09;;;;;;;1.80;0.93;;;17.50;68.70;;;;;;5087332;28;20032;-40
2021/03/12 06:58:35;;;;;;;1.83;0.73;;;17.50;69.40;;;;;;5074255;28;20491;-39
2021/03/12 07:01:01;;;;;;;2.63;1.20;;;17.50;69.20;;;;;;5084310;28;20274;-52
2021/03/12 07:03:31;;;;;;;2.45;1.08;;;17.50;69.30;;;;;;5089793;28;20036;-42
2021/03/12 07:05:58;;;;;;;2.03;1.15;;;17.50;69.30;;;;;;5086857;28;20023;-39
2021/03/12 07:08:31;;;;;;;2.83;0.93;;;17.40;69.60;;;;;;5086808;28;20097;-41
2021/03/12 07:10:56;;;;;;;2.10;0.80;;;17.40;69.70;;;;;;5077346;28;20035;-41
2021/03/12 07:13:22;;;;;;;1.85;0.80;;;17.40;69.60;;;;;;5076794;28;20035;-40
2021/03/12 07:15:50;;;;;;;1.45;0.70;;;17.40;69.90;;;;;;5089764;28;20522;-41
2021/03/12 07:18:16;;;;;;;5.22;1.00;;;17.40;69.60;;;;;;5077314;28;20033;-40
2021/03/12 07:20:41;;;;;;;4.10;1.15;;;17.30;69.70;;;;;;5079699;28;20024;-43
2021/03/12 07:23:07;;;;;;;4.53;1.20;;;17.30;69.40;;;;;;5086339;28;20025;-41
2021/03/12 07:25:33;;;;;;;1.40;0.80;;;17.30;69.30;;;;;;5089091;28;20115;-40
2021/03/12 07:28:01;;;;;;;1.45;0.82;;;17.30;68.90;;;;;;5076701;28;20079;-40
2021/03/12 07:30:27;;;;;;;2.60;0.98;;;17.30;69.20;;;;;;5076512;28;20028;-39
2021/03/12 07:32:53;;;;;;;1.10;0.80;;;17.30;69.00;;;;;;5082705;28;20119;-41
2021/03/12 07:35:18;;;;;;;4.40;0.80;;;17.30;69.00;;;;;;5084411;28;20039;-41
2021/03/12 07:37:44;;;;;;;1.13;0.88;;;17.30;68.60;;;;;;5074822;28;20025;-41
2021/03/12 07:40:10;;;;;;;1.02;0.70;;;17.30;68.70;;;;;;5089233;28;20124;-41
2021/03/12 07:42:36;;;;;;;2.70;0.70;;;17.30;68.60;;;;;;5087250;28;20024;-41
2021/03/12 07:45:02;;;;;;;2.67;0.80;;;17.30;69.30;;;;;;5082865;28;20036;-40
2021/03/12 07:47:28;;;;;;;2.28;0.82;;;17.30;68.40;;;;;;5084204;28;20501;-43
2021/03/12 07:49:54;;;;;;;1.13;0.68;;;17.30;68.20;;;;;;5090624;28;20103;-41
2021/03/12 07:52:49;;;;;;;1.70;0.90;;;17.30;68.20;;;;;;5073160;28;20394;-41
2021/03/12 07:55:35;;;;;;;3.25;0.88;;;17.30;68.00;;;;;;5088395;28;20024;-42
2021/03/12 07:58:04;;;;;;;1.15;0.60;;;17.30;68.00;;;;;;5081837;28;20474;-39
2021/03/12 08:00:30;;;;;;;1.35;0.80;;;17.30;68.50;;;;;;5080269;28;20409;-39
2021/03/12 08:03:01;;;;;;;1.63;0.90;;;17.30;67.60;;;;;;5081340;28;20020;-41
2021/03/12 08:05:33;;;;;;;2.17;0.90;;;17.30;67.60;;;;;;5076894;28;20107;-41
2021/03/12 08:07:59;;;;;;;1.13;0.60;;;17.30;67.50;;;;;;5088192;28;20027;-41
2021/03/12 08:10:25;;;;;;;3.55;0.73;;;17.30;67.40;;;;;;5090321;28;20036;-42
2021/03/12 08:12:50;;;;;;;2.22;0.65;;;17.30;67.20;;;;;;5091392;28;20141;-41
2021/03/12 08:15:26;;;;;;;1.85;0.60;;;17.30;67.10;;;;;;5078334;28;20031;-40
2021/03/12 08:17:58;;;;;;;2.55;0.88;;;17.30;67.10;;;;;;5081013;28;20378;-39
2021/03/12 08:20:30;;;;;;;0.90;0.60;;;17.30;67.00;;;;;;5085403;28;20043;-42
2021/03/12 08:22:57;;;;;;;1.10;0.70;;;17.30;67.00;;;;;;5076991;28;20025;-39
2021/03/12 08:25:31;;;;;;;1.77;0.80;;;17.30;66.80;;;;;;5083098;28;20029;-42
2021/03/12 08:27:57;;;;;;;1.40;0.70;;;17.30;66.70;;;;;;5079250;28;20523;-42
2021/03/12 08:30:23;;;;;;;1.38;1.00;;;17.30;66.50;;;;;;5085409;28;20107;-41
2021/03/12 08:32:49;;;;;;;1.48;0.93;;;17.40;66.50;;;;;;5086980;28;20104;-44
2021/03/12 08:35:33;;;;;;;0.70;0.60;;;17.40;66.30;;;;;;5088506;28;20028;-42
2021/03/12 08:38:02;;;;;;;1.10;0.63;;;17.40;66.20;;;;;;5077479;28;20028;-42
2021/03/12 08:40:28;;;;;;;1.00;0.40;;;17.40;66.00;;;;;;5085060;28;20044;-42
2021/03/12 08:43:03;;;;;;;0.75;0.57;;;17.40;65.90;;;;;;5088242;28;20088;-43
2021/03/12 08:45:41;;;;;;;1.48;0.98;;;17.40;65.80;;;;;;5077146;28;20036;-40
2021/03/12 08:48:11;;;;;;;1.15;0.60;;;17.40;65.60;;;;;;5078000;28;20379;-42
2021/03/12 08:50:39;;;;;;;1.42;0.93;;;17.40;65.60;;;;;;5078014;28;20028;-43
2021/03/12 08:53:05;;;;;;;0.52;0.50;;;17.40;65.50;;;;;;5087480;28;20027;-40
2021/03/12 08:55:32;;;;;;;0.88;0.60;;;17.40;65.40;;;;;;5073219;28;20444;-40
2021/03/12 08:58:23;;;;;;;1.30;0.95;;;17.40;65.40;;;;;;5088053;28;20063;-40
2021/03/12 09:00:50;;;;;;;1.55;0.82;;;17.50;65.30;;;;;;5076548;28;20128;-41
2021/03/12 09:03:21;;;;;;;1.17;0.93;;;17.50;65.10;;;;;;5082527;28;20024;-42
2021/03/12 09:05:48;;;;;;;1.10;0.70;;;17.50;64.90;;;;;;5086240;28;20075;-41
2021/03/12 09:08:13;;;;;;;0.90;0.70;;;17.60;64.80;;;;;;5087087;28;20043;-41
2021/03/12 09:10:40;;;;;;;0.80;0.40;;;17.60;64.50;;;;;;5088074;28;20111;-42
2021/03/12 09:13:24;;;;;;;0.80;0.80;;;17.70;64.20;;;;;;5086857;28;20035;-42
2021/03/12 09:15:50;;;;;;;0.93;0.70;;;17.70;64.10;;;;;;5081300;28;20024;-41
2021/03/12 09:18:17;;;;;;;0.82;0.80;;;17.80;63.90;;;;;;5087737;28;20032;-42
2021/03/12 09:20:43;;;;;;;0.77;0.50;;;17.80;63.80;;;;;;5079020;28;20020;-42
2021/03/12 09:23:09;;;;;;;0.82;0.50;;;17.80;63.60;;;;;;5076530;28;20028;-43
2021/03/12 09:25:34;;;;;;;1.15;0.70;;;17.80;63.80;;;;;;5073636;28;20032;-42
2021/03/12 09:28:04;;;;;;;0.65;0.60;;;17.80;63.80;;;;;;5088117;28;20024;-42
2021/03/12 09:30:41;;;;;;;0.65;0.50;;;17.80;63.80;;;;;;5089437;28;20032;-40
2021/03/12 09:33:08;;;;;;;0.50;0.40;;;17.80;63.90;;;;;;5075087;28;20032;-43
2021/03/12 09:35:38;;;;;;;0.55;0.50;;;17.80;63.80;;;;;;5078500;28;20048;-42
2021/03/12 09:38:04;;;;;;;0.40;0.40;;;17.80;64.00;;;;;;5086854;28;20457;-42
2021/03/12 09:40:33;;;;;;;0.82;0.52;;;17.80;64.10;;;;;;5088741;28;20060;-40
2021/03/12 09:42:59;;;;;;;0.88;0.60;;;17.80;64.00;;;;;;5087340;28;20032;-42
2021/03/12 09:45:25;;;;;;;1.05;0.68;;;17.90;64.00;;;;;;5084592;28;20046;-42
2021/03/12 09:47:51;;;;;;;0.95;0.60;;;17.90;64.10;;;;;;5082060;28;20017;-42
2021/03/12 09:50:17;;;;;;;0.60;0.40;;;17.80;64.30;;;;;;5078544;28;20037;-39
2021/03/12 09:52:46;;;;;;;1.08;0.60;;;17.90;64.00;;;;;;5098323;28;20032;-41
2021/03/12 09:55:12;;;;;;;0.70;0.70;;;17.90;64.10;;;;;;5076166;28;20082;-41
2021/03/12 09:57:37;;;;;;;0.77;0.60;;;17.80;64.20;;;;;;5084602;28;20554;-43
2021/03/12 10:00:07;;;;;;;0.88;0.60;;;17.90;64.20;;;;;;5080369;28;20024;-44
2021/03/12 10:02:32;;;;;;;0.63;0.40;;;17.90;64.10;;;;;;5115232;28;20024;-41
2021/03/12 10:04:59;;;;;;;1.35;0.80;;;17.90;64.00;;;;;;5089158;28;20397;-42
2021/03/12 10:07:35;;;;;;;0.95;0.40;;;17.90;64.00;;;;;;5078603;28;20173;-43
2021/03/12 10:10:12;;;;;;;1.17;0.63;;;17.90;64.00;;;;;;5087328;28;20132;-40
2021/03/12 10:12:41;;;;;;;0.80;0.50;;;18.00;63.90;;;;;;5075587;28;20033;-42
2021/03/12 10:15:10;;;;;;;2.65;0.52;;;18.00;63.90;;;;;;5082679;28;20100;-43
2021/03/12 10:17:37;;;;;;;1.00;0.73;;;18.00;64.00;;;;;;5083231;28;20498;-44
2021/03/12 10:20:08;;;;;;;0.73;0.40;;;18.00;63.80;;;;;;5092192;28;20023;-43
2021/03/12 10:22:38;;;;;;;0.57;0.30;;;18.00;63.70;;;;;;5075922;28;20491;-42
2021/03/12 10:25:19;;;;;;;0.57;0.50;;;18.00;63.70;;;;;;5090427;28;20442;-42
2021/03/12 10:27:45;;;;;;;0.63;0.40;;;18.10;63.70;;;;;;5079402;28;20095;-42
2021/03/12 10:30:12;;;;;;;0.55;0.40;;;18.10;63.50;;;;;;5078940;28;20041;-41
2021/03/12 10:32:52;;;;;;;0.52;0.40;;;18.10;63.60;;;;;;5079130;28;20025;-43
2021/03/12 10:35:26;;;;;;;0.60;0.43;;;18.20;64.20;;;;;;5078009;28;20033;-41
2021/03/12 10:37:58;;;;;;;0.57;0.40;;;18.20;63.40;;;;;;5089637;28;20546;-40
2021/03/12 10:40:24;;;;;;;0.40;0.40;;;18.20;63.30;;;;;;5093350;28;20057;-41
2021/03/12 10:42:50;;;;;;;0.43;0.40;;;18.20;63.00;;;;;;5085428;28;20020;-42
2021/03/12 10:45:24;;;;;;;0.73;0.30;;;18.30;63.00;;;;;;5079243;28;20040;-45
2021/03/12 10:48:00;;;;;;;0.90;0.40;;;18.30;62.90;;;;;;5082411;28;20016;-40
2021/03/12 10:50:28;;;;;;;0.80;0.40;;;18.30;62.90;;;;;;5086771;28;20032;-41
2021/03/12 10:53:09;;;;;;;0.55;0.30;;;18.20;63.00;;;;;;5076826;28;20024;-42
2021/03/12 10:55:37;;;;;;;1.00;0.40;;;18.20;63.00;;;;;;5076038;28;20029;-42
2021/03/12 10:58:03;;;;;;;0.70;0.25;;;18.20;63.10;;;;;;5076427;28;20073;-40
2021/03/12 11:00:29;;;;;;;0.65;0.30;;;18.20;63.10;;;;;;5089554;28;20036;-39
2021/03/12 11:02:58;;;;;;;1.20;0.45;;;18.20;63.10;;;;;;5087967;28;20024;-43
2021/03/12 11:05:24;;;;;;;0.50;0.40;;;18.20;63.00;;;;;;5086782;28;20511;-42
2021/03/12 11:07:52;;;;;;;0.52;0.40;;;18.20;62.90;;;;;;5089889;28;20021;-39
2021/03/12 11:10:18;;;;;;;0.60;0.40;;;18.20;63.10;;;;;;5085949;28;20043;-39
2021/03/12 11:12:48;;;;;;;0.50;0.40;;;18.20;63.10;;;;;;5078516;28;20037;-41
2021/03/12 11:15:18;;;;;;;0.57;0.40;;;18.20;63.10;;;;;;5085275;28;20630;-41
2021/03/12 11:17:47;;;;;;;0.70;0.40;;;18.20;63.00;;;;;;5082735;28;20025;-41
2021/03/12 11:20:23;;;;;;;0.70;0.50;;;18.30;63.00;;;;;;5082002;28;20032;-44
2021/03/12 11:22:49;;;;;;;0.77;0.40;;;18.30;62.80;;;;;;5079440;28;20028;-45
2021/03/12 11:25:16;;;;;;;0.63;0.40;;;18.30;62.90;;;;;;5082506;28;20591;-46
2021/03/12 11:27:42;;;;;;;0.93;0.63;;;18.20;63.00;;;;;;5080929;28;20603;-46
2021/03/12 11:30:11;;;;;;;41.15;18.42;;;18.20;63.00;;;;;;5079584;28;20094;-49
2021/03/12 11:32:37;;;;;;;84.18;37.30;;;18.20;63.80;;;;;;5079822;28;20051;-40
2021/03/12 11:35:03;;;;;;;98.60;44.65;;;18.20;62.90;;;;;;5079702;28;20047;-50
2021/03/12 11:37:28;;;;;;;118.20;52.47;;;18.20;62.90;;;;;;5078969;28;20074;-45
2021/03/12 11:39:54;;;;;;;135.38;62.63;;;18.20;63.00;;;;;;5081614;28;20146;-40
2021/03/12 11:42:20;;;;;;;158.57;72.30;;;18.20;63.00;;;;;;5079284;28;20032;-44
2021/03/12 11:44:45;;;;;;;163.98;75.95;;;18.30;63.10;;;;;;5080261;28;20058;-46
2021/03/12 11:47:11;;;;;;;168.88;75.57;;;18.30;62.60;;;;;;5078027;28;20028;-45
2021/03/12 11:49:37;;;;;;;165.98;76.53;;;18.40;62.60;;;;;;5078815;28;20043;-47
2021/03/12 11:52:02;;;;;;;154.70;70.88;;;18.40;62.50;;;;;;5080156;28;20106;-47
2021/03/12 11:54:28;;;;;;;163.43;71.70;;;18.50;63.00;;;;;;5079209;28;20027;-46
2021/03/12 11:56:54;;;;;;;149.15;67.78;;;18.50;63.00;;;;;;5080082;28;20114;-44
2021/03/12 11:59:20;;;;;;;152.27;70.93;;;18.60;62.80;;;;;;5080030;28;20043;-46
2021/03/12 12:01:46;;;;;;;143.15;63.35;;;18.60;62.80;;;;;;5079370;28;20494;-44
2021/03/12 12:04:12;;;;;;;137.68;61.17;;;18.70;62.70;;;;;;5079660;28;20036;-47
2021/03/12 12:06:38;;;;;;;136.23;59.05;;;18.70;62.50;;;;;;5081289;28;20040;-46
2021/03/12 12:09:03;;;;;;;125.55;57.60;;;18.60;62.60;;;;;;5077968;28;20509;-46
2021/03/12 12:11:30;;;;;;;122.65;54.50;;;18.60;62.70;;;;;;5077565;28;20020;-46
2021/03/12 12:13:56;;;;;;;123.07;53.40;;;18.70;62.60;;;;;;5079582;28;20131;-45
2021/03/12 12:16:21;;;;;;;120.38;53.70;;;18.70;62.60;;;;;;5079294;28;20119;-49
2021/03/12 12:18:47;;;;;;;118.10;51.17;;;18.70;62.60;;;;;;5089590;28;20461;-46
2021/03/12 12:21:13;;;;;;;105.32;47.42;;;18.70;62.80;;;;;;4731902;27;9999863;-47
2021/03/12 12:23:38;;;;;;;98.88;47.22;;;18.70;62.40;;;;;;5087980;28;20363;-46
2021/03/12 12:26:04;;;;;;;97.97;44.83;;;18.70;62.50;;;;;;5086650;28;20516;-46
2021/03/12 12:28:29;;;;;;;95.05;43.10;;;18.70;62.50;;;;;;5077995;28;20028;-45
2021/03/12 12:30:55;;;;;;;100.90;44.50;;;18.70;62.50;;;;;;5080453;28;20072;-43
2021/03/12 12:33:20;;;;;;;91.18;41.63;;;18.80;62.50;;;;;;5087259;28;20031;-46
2021/03/12 12:35:46;;;;;;;89.70;38.35;;;18.80;62.50;;;;;;5082009;28;20107;-45
2021/03/12 12:38:12;;;;;;;81.03;38.80;;;18.70;62.30;;;;;;5084826;28;20028;-48
2021/03/12 12:40:38;;;;;;;84.32;36.75;;;18.70;62.40;;;;;;5078250;28;20556;-47
2021/03/12 12:43:03;;;;;;;83.93;39.25;;;18.70;62.50;;;;;;5086297;28;20047;-41
2021/03/12 12:45:30;;;;;;;82.60;38.72;;;18.60;62.80;;;;;;5077183;28;20039;-47
2021/03/12 12:47:56;;;;;;;80.13;35.85;;;18.50;62.80;;;;;;5079012;28;20028;-46
2021/03/12 12:50:22;;;;;;;85.45;38.47;;;18.50;62.90;;;;;;5084846;28;20036;-45
2021/03/12 12:52:47;;;;;;;83.50;36.80;;;18.50;62.90;;;;;;5073002;28;20016;-44
2021/03/12 12:55:13;;;;;;;74.75;36.15;;;18.40;63.00;;;;;;5087061;28;20040;-44
2021/03/12 12:57:39;;;;;;;76.40;35.13;;;18.50;62.90;;;;;;5076451;28;20016;-46